sensor_id;sensor_type;location;lat;lon;timestamp;P1;durP1;ratioP1;P2;durP2;ratioP2
11731;SDS011;5922;53.734;10.258;2023-07-13T00:00:20;4.73;;;3.00;;
11731;SDS011;5922;53.734;10.258;2023-07-13T00:02:47;8.87;;;3.30;;
11731;SDS011;5922;53.734;10.258;2023-07-13T00:05:14;8.43;;;3.40;;
11731;SDS011;5922;53.734;10.258;2023-07-13T00:07:43;7.80;;;3.10;;
11731;SDS011;5922;53.734;10.258;2023-07-13T00:10:11;6.37;;;2.60;;
11731;SDS011;5922;53.734;10.258;2023-07-13T00:12:38;4.03;;;2.67;;
11731;SDS011;5922;53.734;10.258;2023-07-13T00:15:07;9.73;;;3.03;;
11731;SDS011;5922;53.734;10.258;2023-07-13T00:17:36;5.33;;;3.10;;
11731;SDS011;5922;53.734;10.258;2023-07-13T00:20:04;9.80;;;3.67;;
11731;SDS011;5922;53.734;10.258;2023-07-13T00:22:32;7.03;;;2.97;;
11731;SDS011;5922;53.734;10.258;2023-07-13T00:25:01;6.73;;;3.30;;
11731;SDS011;5922;53.734;10.258;2023-07-13T00:27:28;5.27;;;2.53;;
11731;SDS011;5922;53.734;10.258;2023-07-13T00:29:56;5.80;;;2.83;;
11731;SDS011;5922;53.734;10.258;2023-07-13T00:32:24;5.37;;;2.80;;
11731;SDS011;5922;53.734;10.258;2023-07-13T00:34:51;7.30;;;3.00;;
11731;SDS011;5922;53.734;10.258;2023-07-13T00:37:18;7.07;;;2.80;;
11731;SDS011;5922;53.734;10.258;2023-07-13T00:39:46;4.37;;;2.80;;
11731;SDS011;5922;53.734;10.258;2023-07-13T00:42:15;3.80;;;2.80;;
11731;SDS011;5922;53.734;10.258;2023-07-13T00:47:24;3.70;;;2.90;;
11731;SDS011;5922;53.734;10.258;2023-07-13T00:49:51;4.20;;;2.80;;
11731;SDS011;5922;53.734;10.258;2023-07-13T00:52:19;4.47;;;2.93;;
11731;SDS011;5922;53.734;10.258;2023-07-13T00:54:46;5.90;;;2.87;;
11731;SDS011;5922;53.734;10.258;2023-07-13T00:57:16;6.00;;;3.13;;
11731;SDS011;5922;53.734;10.258;2023-07-13T00:59:45;5.93;;;2.90;;
11731;SDS011;5922;53.734;10.258;2023-07-13T01:02:13;5.33;;;3.30;;
11731;SDS011;5922;53.734;10.258;2023-07-13T01:04:41;5.03;;;3.60;;
11731;SDS011;5922;53.734;10.258;2023-07-13T01:07:09;5.27;;;3.33;;
11731;SDS011;5922;53.734;10.258;2023-07-13T01:09:36;6.87;;;3.67;;
11731;SDS011;5922;53.734;10.258;2023-07-13T01:12:03;4.47;;;3.20;;
11731;SDS011;5922;53.734;10.258;2023-07-13T01:14:32;5.40;;;3.50;;
11731;SDS011;5922;53.734;10.258;2023-07-13T01:16:59;6.73;;;3.30;;
11731;SDS011;5922;53.734;10.258;2023-07-13T01:19:31;6.17;;;3.43;;
11731;SDS011;5922;53.734;10.258;2023-07-13T01:22:02;6.17;;;3.60;;
11731;SDS011;5922;53.734;10.258;2023-07-13T01:24:33;6.77;;;3.20;;
11731;SDS011;5922;53.734;10.258;2023-07-13T01:27:01;4.80;;;2.77;;
11731;SDS011;5922;53.734;10.258;2023-07-13T01:29:29;4.93;;;3.17;;
11731;SDS011;5922;53.734;10.258;2023-07-13T01:31:56;6.07;;;2.80;;
11731;SDS011;5922;53.734;10.258;2023-07-13T01:34:25;7.57;;;3.37;;
11731;SDS011;5922;53.734;10.258;2023-07-13T01:36:52;4.77;;;2.80;;
11731;SDS011;5922;53.734;10.258;2023-07-13T01:39:21;6.83;;;2.97;;
11731;SDS011;5922;53.734;10.258;2023-07-13T01:41:48;9.37;;;3.23;;
11731;SDS011;5922;53.734;10.258;2023-07-13T01:44:15;4.57;;;2.90;;
11731;SDS011;5922;53.734;10.258;2023-07-13T01:46:43;4.30;;;2.70;;
11731;SDS011;5922;53.734;10.258;2023-07-13T01:49:10;6.73;;;2.50;;
11731;SDS011;5922;53.734;10.258;2023-07-13T01:51:37;4.30;;;2.57;;
11731;SDS011;5922;53.734;10.258;2023-07-13T01:54:04;5.43;;;2.80;;
11731;SDS011;5922;53.734;10.258;2023-07-13T01:56:33;5.03;;;2.70;;
11731;SDS011;5922;53.734;10.258;2023-07-13T01:59:00;4.23;;;2.60;;
11731;SDS011;5922;53.734;10.258;2023-07-13T02:01:28;4.93;;;2.70;;
11731;SDS011;5922;53.734;10.258;2023-07-13T02:03:55;3.07;;;2.73;;
11731;SDS011;5922;53.734;10.258;2023-07-13T02:06:22;3.13;;;2.33;;
11731;SDS011;5922;53.734;10.258;2023-07-13T02:08:49;5.07;;;2.37;;
11731;SDS011;5922;53.734;10.258;2023-07-13T02:11:17;5.10;;;2.50;;
11731;SDS011;5922;53.734;10.258;2023-07-13T02:13:45;3.70;;;3.00;;
11731;SDS011;5922;53.734;10.258;2023-07-13T02:16:13;2.47;;;2.27;;
11731;SDS011;5922;53.734;10.258;2023-07-13T02:18:40;4.90;;;2.23;;
11731;SDS011;5922;53.734;10.258;2023-07-13T02:21:07;5.53;;;2.77;;
11731;SDS011;5922;53.734;10.258;2023-07-13T02:23:34;4.33;;;2.60;;
11731;SDS011;5922;53.734;10.258;2023-07-13T02:26:03;3.37;;;2.87;;
11731;SDS011;5922;53.734;10.258;2023-07-13T02:28:30;2.87;;;2.37;;
11731;SDS011;5922;53.734;10.258;2023-07-13T02:31:05;6.00;;;2.47;;
11731;SDS011;5922;53.734;10.258;2023-07-13T02:33:32;5.13;;;2.40;;
11731;SDS011;5922;53.734;10.258;2023-07-13T02:35:59;3.93;;;2.80;;
11731;SDS011;5922;53.734;10.258;2023-07-13T02:38:27;7.07;;;2.90;;
11731;SDS011;5922;53.734;10.258;2023-07-13T02:40:54;5.47;;;2.70;;
11731;SDS011;5922;53.734;10.258;2023-07-13T02:43:21;5.93;;;2.80;;
11731;SDS011;5922;53.734;10.258;2023-07-13T02:45:48;3.37;;;2.70;;
11731;SDS011;5922;53.734;10.258;2023-07-13T02:48:17;5.30;;;3.00;;
11731;SDS011;5922;53.734;10.258;2023-07-13T02:50:45;3.30;;;2.47;;
11731;SDS011;5922;53.734;10.258;2023-07-13T02:53:12;5.73;;;3.17;;
11731;SDS011;5922;53.734;10.258;2023-07-13T02:55:39;5.43;;;2.80;;
11731;SDS011;5922;53.734;10.258;2023-07-13T02:58:12;4.63;;;2.90;;
11731;SDS011;5922;53.734;10.258;2023-07-13T03:00:41;5.40;;;2.60;;
11731;SDS011;5922;53.734;10.258;2023-07-13T03:03:09;5.70;;;3.30;;
11731;SDS011;5922;53.734;10.258;2023-07-13T03:05:57;3.70;;;2.93;;
11731;SDS011;5922;53.734;10.258;2023-07-13T03:08:25;5.57;;;3.50;;
11731;SDS011;5922;53.734;10.258;2023-07-13T03:10:58;4.57;;;3.30;;
11731;SDS011;5922;53.734;10.258;2023-07-13T03:13:25;8.30;;;3.63;;
11731;SDS011;5922;53.734;10.258;2023-07-13T03:15:53;4.80;;;3.50;;
11731;SDS011;5922;53.734;10.258;2023-07-13T03:18:20;6.73;;;3.20;;
11731;SDS011;5922;53.734;10.258;2023-07-13T03:20:51;5.60;;;3.33;;
11731;SDS011;5922;53.734;10.258;2023-07-13T03:23:18;6.33;;;3.67;;
11731;SDS011;5922;53.734;10.258;2023-07-13T03:25:46;5.00;;;3.10;;
11731;SDS011;5922;53.734;10.258;2023-07-13T03:28:13;3.37;;;3.00;;
11731;SDS011;5922;53.734;10.258;2023-07-13T03:30:40;4.53;;;3.60;;
11731;SDS011;5922;53.734;10.258;2023-07-13T03:33:08;6.13;;;3.77;;
11731;SDS011;5922;53.734;10.258;2023-07-13T03:35:35;4.43;;;3.83;;
11731;SDS011;5922;53.734;10.258;2023-07-13T03:38:08;4.53;;;3.23;;
11731;SDS011;5922;53.734;10.258;2023-07-13T03:40:35;6.87;;;3.40;;
11731;SDS011;5922;53.734;10.258;2023-07-13T03:43:03;4.00;;;3.27;;
11731;SDS011;5922;53.734;10.258;2023-07-13T03:45:30;6.50;;;3.57;;
11731;SDS011;5922;53.734;10.258;2023-07-13T03:47:57;5.43;;;3.97;;
11731;SDS011;5922;53.734;10.258;2023-07-13T03:50:24;3.87;;;3.43;;
11731;SDS011;5922;53.734;10.258;2023-07-13T03:52:51;5.37;;;3.60;;
11731;SDS011;5922;53.734;10.258;2023-07-13T03:55:20;4.20;;;3.00;;
11731;SDS011;5922;53.734;10.258;2023-07-13T03:57:47;5.53;;;3.40;;
11731;SDS011;5922;53.734;10.258;2023-07-13T04:00:15;4.90;;;3.73;;
11731;SDS011;5922;53.734;10.258;2023-07-13T04:02:42;5.13;;;3.60;;
11731;SDS011;5922;53.734;10.258;2023-07-13T04:05:10;5.07;;;3.27;;
11731;SDS011;5922;53.734;10.258;2023-07-13T04:07:37;8.13;;;3.70;;
11731;SDS011;5922;53.734;10.258;2023-07-13T04:10:04;5.83;;;3.60;;
11731;SDS011;5922;53.734;10.258;2023-07-13T04:12:33;8.37;;;3.83;;
11731;SDS011;5922;53.734;10.258;2023-07-13T04:15:00;4.80;;;3.33;;
11731;SDS011;5922;53.734;10.258;2023-07-13T04:17:28;6.57;;;3.70;;
11731;SDS011;5922;53.734;10.258;2023-07-13T04:19:55;5.63;;;3.90;;
11731;SDS011;5922;53.734;10.258;2023-07-13T04:22:22;4.03;;;3.50;;
11731;SDS011;5922;53.734;10.258;2023-07-13T04:24:49;6.57;;;3.60;;
11731;SDS011;5922;53.734;10.258;2023-07-13T04:27:17;5.40;;;3.90;;
11731;SDS011;5922;53.734;10.258;2023-07-13T04:29:45;5.70;;;3.07;;
11731;SDS011;5922;53.734;10.258;2023-07-13T04:32:13;8.13;;;3.90;;
11731;SDS011;5922;53.734;10.258;2023-07-13T04:34:40;6.57;;;3.03;;
11731;SDS011;5922;53.734;10.258;2023-07-13T04:37:07;4.97;;;2.77;;
11731;SDS011;5922;53.734;10.258;2023-07-13T04:39:34;7.30;;;3.30;;
11731;SDS011;5922;53.734;10.258;2023-07-13T04:42:02;6.60;;;3.20;;
11731;SDS011;5922;53.734;10.258;2023-07-13T04:44:29;4.50;;;3.20;;
11731;SDS011;5922;53.734;10.258;2023-07-13T04:46:58;4.27;;;2.90;;
11731;SDS011;5922;53.734;10.258;2023-07-13T04:49:25;5.93;;;3.13;;
11731;SDS011;5922;53.734;10.258;2023-07-13T04:51:53;4.30;;;3.27;;
11731;SDS011;5922;53.734;10.258;2023-07-13T04:54:20;5.00;;;3.07;;
11731;SDS011;5922;53.734;10.258;2023-07-13T04:56:47;6.27;;;2.90;;
11731;SDS011;5922;53.734;10.258;2023-07-13T04:59:15;7.97;;;3.40;;
11731;SDS011;5922;53.734;10.258;2023-07-13T05:01:42;6.10;;;3.10;;
11731;SDS011;5922;53.734;10.258;2023-07-13T05:04:10;5.57;;;3.27;;
11731;SDS011;5922;53.734;10.258;2023-07-13T05:06:37;8.47;;;2.83;;
11731;SDS011;5922;53.734;10.258;2023-07-13T05:09:05;7.00;;;3.30;;
11731;SDS011;5922;53.734;10.258;2023-07-13T05:11:32;4.20;;;3.30;;
11731;SDS011;5922;53.734;10.258;2023-07-13T05:13:59;7.90;;;3.30;;
11731;SDS011;5922;53.734;10.258;2023-07-13T05:16:27;5.33;;;3.37;;
11731;SDS011;5922;53.734;10.258;2023-07-13T05:18:54;5.90;;;3.20;;
11731;SDS011;5922;53.734;10.258;2023-07-13T05:21:23;6.57;;;3.13;;
11731;SDS011;5922;53.734;10.258;2023-07-13T05:23:53;8.10;;;3.37;;
11731;SDS011;5922;53.734;10.258;2023-07-13T05:26:20;5.37;;;3.30;;
11731;SDS011;5922;53.734;10.258;2023-07-13T05:28:47;7.50;;;3.37;;
11731;SDS011;5922;53.734;10.258;2023-07-13T05:31:15;3.87;;;2.97;;
11731;SDS011;5922;53.734;10.258;2023-07-13T05:33:42;6.17;;;3.03;;
11731;SDS011;5922;53.734;10.258;2023-07-13T05:36:09;4.87;;;3.07;;
11731;SDS011;5922;53.734;10.258;2023-07-13T05:38:38;7.03;;;2.70;;
11731;SDS011;5922;53.734;10.258;2023-07-13T05:41:09;8.40;;;3.37;;
11731;SDS011;5922;53.734;10.258;2023-07-13T05:43:36;7.10;;;3.20;;
11731;SDS011;5922;53.734;10.258;2023-07-13T05:46:03;5.87;;;3.67;;
11731;SDS011;5922;53.734;10.258;2023-07-13T05:48:32;6.73;;;3.50;;
11731;SDS011;5922;53.734;10.258;2023-07-13T05:51:00;5.50;;;3.10;;
11731;SDS011;5922;53.734;10.258;2023-07-13T05:53:27;4.63;;;2.83;;
11731;SDS011;5922;53.734;10.258;2023-07-13T05:55:56;8.90;;;2.77;;
11731;SDS011;5922;53.734;10.258;2023-07-13T05:58:23;8.27;;;3.40;;
11731;SDS011;5922;53.734;10.258;2023-07-13T06:00:58;8.67;;;3.43;;
11731;SDS011;5922;53.734;10.258;2023-07-13T06:03:26;7.20;;;3.30;;
11731;SDS011;5922;53.734;10.258;2023-07-13T06:05:53;7.03;;;3.10;;
11731;SDS011;5922;53.734;10.258;2023-07-13T06:08:25;6.73;;;3.50;;
11731;SDS011;5922;53.734;10.258;2023-07-13T06:10:54;8.63;;;3.10;;
11731;SDS011;5922;53.734;10.258;2023-07-13T06:13:23;7.60;;;3.53;;
11731;SDS011;5922;53.734;10.258;2023-07-13T06:15:58;8.40;;;3.10;;
11731;SDS011;5922;53.734;10.258;2023-07-13T06:18:29;12.17;;;3.63;;
11731;SDS011;5922;53.734;10.258;2023-07-13T06:20:56;8.80;;;3.17;;
11731;SDS011;5922;53.734;10.258;2023-07-13T06:23:25;8.40;;;3.40;;
11731;SDS011;5922;53.734;10.258;2023-07-13T06:25:53;10.23;;;3.40;;
11731;SDS011;5922;53.734;10.258;2023-07-13T06:28:20;6.90;;;3.00;;
11731;SDS011;5922;53.734;10.258;2023-07-13T06:30:52;13.13;;;3.50;;
11731;SDS011;5922;53.734;10.258;2023-07-13T06:33:19;9.47;;;3.07;;
11731;SDS011;5922;53.734;10.258;2023-07-13T06:35:46;7.00;;;2.87;;
11731;SDS011;5922;53.734;10.258;2023-07-13T06:38:13;7.77;;;3.67;;
11731;SDS011;5922;53.734;10.258;2023-07-13T06:40:41;6.50;;;3.27;;
11731;SDS011;5922;53.734;10.258;2023-07-13T06:43:11;7.20;;;3.33;;
11731;SDS011;5922;53.734;10.258;2023-07-13T06:45:40;7.60;;;3.40;;
11731;SDS011;5922;53.734;10.258;2023-07-13T06:48:09;9.77;;;3.10;;
11731;SDS011;5922;53.734;10.258;2023-07-13T06:50:37;6.47;;;2.70;;
11731;SDS011;5922;53.734;10.258;2023-07-13T06:53:04;5.93;;;2.80;;
11731;SDS011;5922;53.734;10.258;2023-07-13T06:55:31;5.47;;;2.90;;
11731;SDS011;5922;53.734;10.258;2023-07-13T06:57:58;7.77;;;2.90;;
11731;SDS011;5922;53.734;10.258;2023-07-13T07:00:26;7.07;;;2.90;;
11731;SDS011;5922;53.734;10.258;2023-07-13T07:02:53;6.30;;;3.10;;
11731;SDS011;5922;53.734;10.258;2023-07-13T07:05:22;9.87;;;3.23;;
11731;SDS011;5922;53.734;10.258;2023-07-13T07:07:49;7.37;;;2.63;;
11731;SDS011;5922;53.734;10.258;2023-07-13T07:10:17;7.40;;;2.80;;
11731;SDS011;5922;53.734;10.258;2023-07-13T07:12:45;7.93;;;2.70;;
11731;SDS011;5922;53.734;10.258;2023-07-13T07:15:12;10.63;;;3.13;;
11731;SDS011;5922;53.734;10.258;2023-07-13T07:17:40;10.57;;;2.70;;
11731;SDS011;5922;53.734;10.258;2023-07-13T07:20:10;5.60;;;2.60;;
11731;SDS011;5922;53.734;10.258;2023-07-13T07:22:39;4.20;;;2.27;;
11731;SDS011;5922;53.734;10.258;2023-07-13T07:25:07;5.00;;;2.30;;
11731;SDS011;5922;53.734;10.258;2023-07-13T07:27:34;8.13;;;2.20;;
11731;SDS011;5922;53.734;10.258;2023-07-13T07:30:02;9.83;;;2.33;;
11731;SDS011;5922;53.734;10.258;2023-07-13T07:32:29;4.57;;;2.30;;
11731;SDS011;5922;53.734;10.258;2023-07-13T07:34:57;10.60;;;2.53;;
11731;SDS011;5922;53.734;10.258;2023-07-13T07:37:24;7.10;;;2.80;;
11731;SDS011;5922;53.734;10.258;2023-07-13T07:39:53;5.57;;;2.20;;
11731;SDS011;5922;53.734;10.258;2023-07-13T07:42:21;7.20;;;2.50;;
11731;SDS011;5922;53.734;10.258;2023-07-13T07:44:51;3.50;;;2.10;;
11731;SDS011;5922;53.734;10.258;2023-07-13T07:47:18;7.30;;;2.60;;
11731;SDS011;5922;53.734;10.258;2023-07-13T07:49:45;6.63;;;2.10;;
11731;SDS011;5922;53.734;10.258;2023-07-13T07:52:13;5.70;;;2.23;;
11731;SDS011;5922;53.734;10.258;2023-07-13T07:54:40;4.30;;;2.00;;
11731;SDS011;5922;53.734;10.258;2023-07-13T07:57:09;10.33;;;2.30;;
11731;SDS011;5922;53.734;10.258;2023-07-13T07:59:36;5.83;;;2.10;;
11731;SDS011;5922;53.734;10.258;2023-07-13T08:02:04;3.58;;;2.10;;
11731;SDS011;5922;53.734;10.258;2023-07-13T08:04:31;6.43;;;2.40;;
11731;SDS011;5922;53.734;10.258;2023-07-13T08:06:58;8.10;;;2.53;;
11731;SDS011;5922;53.734;10.258;2023-07-13T08:09:27;5.78;;;2.47;;
11731;SDS011;5922;53.734;10.258;2023-07-13T08:11:55;6.70;;;2.17;;
11731;SDS011;5922;53.734;10.258;2023-07-13T08:14:24;4.77;;;1.90;;
11731;SDS011;5922;53.734;10.258;2023-07-13T08:16:51;5.27;;;2.20;;
11731;SDS011;5922;53.734;10.258;2023-07-13T08:19:21;5.77;;;2.20;;
11731;SDS011;5922;53.734;10.258;2023-07-13T08:21:48;6.00;;;2.47;;
11731;SDS011;5922;53.734;10.258;2023-07-13T08:24:15;4.17;;;2.03;;
11731;SDS011;5922;53.734;10.258;2023-07-13T08:26:45;5.70;;;2.10;;
11731;SDS011;5922;53.734;10.258;2023-07-13T08:29:12;3.60;;;1.80;;
11731;SDS011;5922;53.734;10.258;2023-07-13T08:31:41;4.53;;;2.07;;
11731;SDS011;5922;53.734;10.258;2023-07-13T08:34:10;3.57;;;1.87;;
11731;SDS011;5922;53.734;10.258;2023-07-13T08:36:37;4.93;;;1.80;;
11731;SDS011;5922;53.734;10.258;2023-07-13T08:39:04;7.43;;;2.23;;
11731;SDS011;5922;53.734;10.258;2023-07-13T08:41:31;4.07;;;2.33;;
11731;SDS011;5922;53.734;10.258;2023-07-13T08:43:59;5.17;;;1.87;;
11731;SDS011;5922;53.734;10.258;2023-07-13T08:46:32;4.37;;;2.10;;
11731;SDS011;5922;53.734;10.258;2023-07-13T08:49:05;6.60;;;2.37;;
11731;SDS011;5922;53.734;10.258;2023-07-13T08:51:36;8.70;;;2.20;;
11731;SDS011;5922;53.734;10.258;2023-07-13T08:54:08;4.10;;;1.90;;
11731;SDS011;5922;53.734;10.258;2023-07-13T08:56:37;5.47;;;2.30;;
11731;SDS011;5922;53.734;10.258;2023-07-13T08:59:06;4.60;;;2.10;;
11731;SDS011;5922;53.734;10.258;2023-07-13T09:01:43;4.07;;;2.10;;
11731;SDS011;5922;53.734;10.258;2023-07-13T09:04:15;3.33;;;1.70;;
11731;SDS011;5922;53.734;10.258;2023-07-13T09:06:46;5.07;;;2.30;;
11731;SDS011;5922;53.734;10.258;2023-07-13T09:09:19;5.03;;;2.10;;
11731;SDS011;5922;53.734;10.258;2023-07-13T09:11:49;8.87;;;2.03;;
11731;SDS011;5922;53.734;10.258;2023-07-13T09:14:25;6.43;;;2.23;;
11731;SDS011;5922;53.734;10.258;2023-07-13T09:16:53;6.23;;;2.20;;
11731;SDS011;5922;53.734;10.258;2023-07-13T09:19:24;2.97;;;2.00;;
11731;SDS011;5922;53.734;10.258;2023-07-13T09:21:53;5.07;;;2.00;;
11731;SDS011;5922;53.734;10.258;2023-07-13T09:24:27;4.57;;;2.00;;
11731;SDS011;5922;53.734;10.258;2023-07-13T09:26:55;5.40;;;2.20;;
11731;SDS011;5922;53.734;10.258;2023-07-13T09:29:26;3.57;;;1.80;;
11731;SDS011;5922;53.734;10.258;2023-07-13T09:31:54;3.70;;;1.90;;
11731;SDS011;5922;53.734;10.258;2023-07-13T09:34:25;5.00;;;2.10;;
11731;SDS011;5922;53.734;10.258;2023-07-13T09:36:54;6.37;;;2.20;;
11731;SDS011;5922;53.734;10.258;2023-07-13T09:39:23;5.60;;;1.90;;
11731;SDS011;5922;53.734;10.258;2023-07-13T09:41:53;7.40;;;2.03;;
11731;SDS011;5922;53.734;10.258;2023-07-13T09:44:27;2.63;;;2.03;;
11731;SDS011;5922;53.734;10.258;2023-07-13T09:46:56;6.20;;;2.10;;
11731;SDS011;5922;53.734;10.258;2023-07-13T09:49:33;5.10;;;2.50;;
11731;SDS011;5922;53.734;10.258;2023-07-13T09:52:03;4.63;;;2.30;;
11731;SDS011;5922;53.734;10.258;2023-07-13T09:54:32;4.90;;;2.03;;
11731;SDS011;5922;53.734;10.258;2023-07-13T09:57:00;4.60;;;2.07;;
11731;SDS011;5922;53.734;10.258;2023-07-13T09:59:29;5.33;;;2.23;;
11731;SDS011;5922;53.734;10.258;2023-07-13T10:01:56;4.73;;;1.80;;
11731;SDS011;5922;53.734;10.258;2023-07-13T10:04:27;9.40;;;2.33;;
11731;SDS011;5922;53.734;10.258;2023-07-13T10:07:05;5.10;;;2.43;;
11731;SDS011;5922;53.734;10.258;2023-07-13T10:09:33;5.27;;;2.30;;
11731;SDS011;5922;53.734;10.258;2023-07-13T10:12:00;4.53;;;2.03;;
11731;SDS011;5922;53.734;10.258;2023-07-13T10:14:28;4.63;;;2.20;;
11731;SDS011;5922;53.734;10.258;2023-07-13T10:16:57;5.23;;;1.70;;
11731;SDS011;5922;53.734;10.258;2023-07-13T10:19:27;5.10;;;2.10;;
11731;SDS011;5922;53.734;10.258;2023-07-13T10:22:00;3.53;;;1.90;;
11731;SDS011;5922;53.734;10.258;2023-07-13T10:24:30;5.10;;;1.90;;
11731;SDS011;5922;53.734;10.258;2023-07-13T10:27:00;4.33;;;2.67;;
11731;SDS011;5922;53.734;10.258;2023-07-13T10:29:29;6.80;;;2.10;;
11731;SDS011;5922;53.734;10.258;2023-07-13T10:32:07;2.87;;;2.00;;
11731;SDS011;5922;53.734;10.258;2023-07-13T10:34:38;6.17;;;2.40;;
11731;SDS011;5922;53.734;10.258;2023-07-13T10:37:06;4.73;;;2.47;;
11731;SDS011;5922;53.734;10.258;2023-07-13T10:39:40;3.27;;;2.23;;
11731;SDS011;5922;53.734;10.258;2023-07-13T10:42:08;3.43;;;2.17;;
11731;SDS011;5922;53.734;10.258;2023-07-13T10:44:39;3.80;;;1.90;;
11731;SDS011;5922;53.734;10.258;2023-07-13T10:47:07;4.83;;;1.93;;
11731;SDS011;5922;53.734;10.258;2023-07-13T10:49:35;2.97;;;1.87;;
11731;SDS011;5922;53.734;10.258;2023-07-13T10:52:03;6.83;;;2.37;;
11731;SDS011;5922;53.734;10.258;2023-07-13T10:54:31;4.37;;;2.43;;
11731;SDS011;5922;53.734;10.258;2023-07-13T10:57:19;6.43;;;2.40;;
11731;SDS011;5922;53.734;10.258;2023-07-13T10:59:47;6.37;;;2.00;;
11731;SDS011;5922;53.734;10.258;2023-07-13T11:02:17;2.87;;;1.87;;
11731;SDS011;5922;53.734;10.258;2023-07-13T11:04:48;4.03;;;2.10;;
11731;SDS011;5922;53.734;10.258;2023-07-13T11:07:19;3.37;;;2.10;;
11731;SDS011;5922;53.734;10.258;2023-07-13T11:09:49;4.77;;;2.13;;
11731;SDS011;5922;53.734;10.258;2023-07-13T11:12:27;6.73;;;2.23;;
11731;SDS011;5922;53.734;10.258;2023-07-13T11:15:04;5.97;;;2.43;;
11731;SDS011;5922;53.734;10.258;2023-07-13T11:17:48;5.10;;;2.13;;
11731;SDS011;5922;53.734;10.258;2023-07-13T11:20:30;5.37;;;1.97;;
11731;SDS011;5922;53.734;10.258;2023-07-13T11:25:44;3.83;;;1.80;;
11731;SDS011;5922;53.734;10.258;2023-07-13T11:28:21;3.80;;;1.90;;
11731;SDS011;5922;53.734;10.258;2023-07-13T11:30:49;3.40;;;2.13;;
11731;SDS011;5922;53.734;10.258;2023-07-13T11:33:20;6.20;;;2.07;;
11731;SDS011;5922;53.734;10.258;2023-07-13T11:35:53;6.13;;;1.80;;
11731;SDS011;5922;53.734;10.258;2023-07-13T11:38:28;4.13;;;2.00;;
11731;SDS011;5922;53.734;10.258;2023-07-13T11:40:56;4.23;;;2.10;;
11731;SDS011;5922;53.734;10.258;2023-07-13T11:43:27;3.00;;;2.00;;
11731;SDS011;5922;53.734;10.258;2023-07-13T11:45:54;3.33;;;2.10;;
11731;SDS011;5922;53.734;10.258;2023-07-13T11:48:23;4.97;;;2.07;;
11731;SDS011;5922;53.734;10.258;2023-07-13T11:50:53;5.70;;;2.10;;
11731;SDS011;5922;53.734;10.258;2023-07-13T11:53:20;4.30;;;1.90;;
11731;SDS011;5922;53.734;10.258;2023-07-13T11:55:48;4.20;;;2.23;;
11731;SDS011;5922;53.734;10.258;2023-07-13T11:58:17;3.40;;;1.73;;
11731;SDS011;5922;53.734;10.258;2023-07-13T12:00:47;5.97;;;2.20;;
11731;SDS011;5922;53.734;10.258;2023-07-13T12:03:14;4.77;;;1.93;;
11731;SDS011;5922;53.734;10.258;2023-07-13T12:05:54;3.83;;;1.90;;
11731;SDS011;5922;53.734;10.258;2023-07-13T12:08:22;3.87;;;1.83;;
11731;SDS011;5922;53.734;10.258;2023-07-13T12:10:56;4.67;;;1.80;;
11731;SDS011;5922;53.734;10.258;2023-07-13T12:13:23;6.77;;;2.07;;
11731;SDS011;5922;53.734;10.258;2023-07-13T12:15:52;4.30;;;2.07;;
11731;SDS011;5922;53.734;10.258;2023-07-13T12:18:20;3.90;;;2.40;;
11731;SDS011;5922;53.734;10.258;2023-07-13T12:20:49;3.33;;;1.67;;
11731;SDS011;5922;53.734;10.258;2023-07-13T12:23:21;7.33;;;3.00;;
11731;SDS011;5922;53.734;10.258;2023-07-13T12:28:35;4.20;;;2.10;;
11731;SDS011;5922;53.734;10.258;2023-07-13T12:31:04;7.57;;;2.27;;
11731;SDS011;5922;53.734;10.258;2023-07-13T12:33:32;4.00;;;2.13;;
11731;SDS011;5922;53.734;10.258;2023-07-13T12:36:03;3.27;;;1.87;;
11731;SDS011;5922;53.734;10.258;2023-07-13T12:38:31;4.57;;;2.10;;
11731;SDS011;5922;53.734;10.258;2023-07-13T12:41:01;3.93;;;1.97;;
11731;SDS011;5922;53.734;10.258;2023-07-13T12:43:30;6.87;;;1.53;;
11731;SDS011;5922;53.734;10.258;2023-07-13T12:46:04;5.23;;;1.80;;
11731;SDS011;5922;53.734;10.258;2023-07-13T12:48:38;3.00;;;1.77;;
11731;SDS011;5922;53.734;10.258;2023-07-13T12:51:08;7.63;;;2.13;;
11731;SDS011;5922;53.734;10.258;2023-07-13T12:53:38;2.73;;;1.77;;
11731;SDS011;5922;53.734;10.258;2023-07-13T12:56:11;6.53;;;2.17;;
11731;SDS011;5922;53.734;10.258;2023-07-13T12:58:42;4.53;;;1.83;;
11731;SDS011;5922;53.734;10.258;2023-07-13T13:01:12;3.67;;;2.00;;
11731;SDS011;5922;53.734;10.258;2023-07-13T13:03:45;2.93;;;1.57;;
11731;SDS011;5922;53.734;10.258;2023-07-13T13:06:20;5.03;;;1.93;;
11731;SDS011;5922;53.734;10.258;2023-07-13T13:08:48;2.83;;;1.80;;
11731;SDS011;5922;53.734;10.258;2023-07-13T13:11:16;4.10;;;2.10;;
11731;SDS011;5922;53.734;10.258;2023-07-13T13:13:44;3.83;;;1.80;;
11731;SDS011;5922;53.734;10.258;2023-07-13T13:16:14;6.63;;;1.93;;
11731;SDS011;5922;53.734;10.258;2023-07-13T13:18:44;3.70;;;2.00;;
11731;SDS011;5922;53.734;10.258;2023-07-13T13:21:12;2.83;;;1.93;;
11731;SDS011;5922;53.734;10.258;2023-07-13T13:23:39;1.67;;;1.53;;
11731;SDS011;5922;53.734;10.258;2023-07-13T13:26:08;3.30;;;1.80;;
11731;SDS011;5922;53.734;10.258;2023-07-13T13:28:36;3.57;;;2.50;;
11731;SDS011;5922;53.734;10.258;2023-07-13T13:31:03;4.10;;;1.90;;
11731;SDS011;5922;53.734;10.258;2023-07-13T13:33:32;4.03;;;2.23;;
11731;SDS011;5922;53.734;10.258;2023-07-13T13:35:59;3.67;;;2.20;;
11731;SDS011;5922;53.734;10.258;2023-07-13T13:38:27;3.93;;;2.10;;
11731;SDS011;5922;53.734;10.258;2023-07-13T13:40:54;3.00;;;1.73;;
11731;SDS011;5922;53.734;10.258;2023-07-13T13:46:14;4.27;;;2.00;;
11731;SDS011;5922;53.734;10.258;2023-07-13T13:48:43;5.10;;;2.00;;
11731;SDS011;5922;53.734;10.258;2023-07-13T13:51:13;6.13;;;2.20;;
11731;SDS011;5922;53.734;10.258;2023-07-13T13:53:41;4.23;;;1.87;;
11731;SDS011;5922;53.734;10.258;2023-07-13T13:56:12;2.53;;;1.77;;
11731;SDS011;5922;53.734;10.258;2023-07-13T13:58:39;2.30;;;1.77;;
11731;SDS011;5922;53.734;10.258;2023-07-13T14:01:10;4.50;;;1.93;;
11731;SDS011;5922;53.734;10.258;2023-07-13T14:03:39;4.03;;;1.63;;
11731;SDS011;5922;53.734;10.258;2023-07-13T14:06:09;3.00;;;1.73;;
11731;SDS011;5922;53.734;10.258;2023-07-13T14:08:38;6.40;;;1.97;;
11731;SDS011;5922;53.734;10.258;2023-07-13T14:11:07;2.30;;;1.83;;
11731;SDS011;5922;53.734;10.258;2023-07-13T14:13:38;4.70;;;1.97;;
11731;SDS011;5922;53.734;10.258;2023-07-13T14:16:09;3.57;;;2.03;;
11731;SDS011;5922;53.734;10.258;2023-07-13T14:18:36;4.30;;;1.83;;
11731;SDS011;5922;53.734;10.258;2023-07-13T14:21:08;2.13;;;1.80;;
11731;SDS011;5922;53.734;10.258;2023-07-13T14:23:40;2.70;;;1.90;;
11731;SDS011;5922;53.734;10.258;2023-07-13T14:26:11;2.60;;;1.87;;
11731;SDS011;5922;53.734;10.258;2023-07-13T14:28:39;5.20;;;2.73;;
11731;SDS011;5922;53.734;10.258;2023-07-13T14:31:08;3.23;;;2.00;;
11731;SDS011;5922;53.734;10.258;2023-07-13T14:33:35;3.43;;;1.87;;
11731;SDS011;5922;53.734;10.258;2023-07-13T14:36:02;4.03;;;2.13;;
11731;SDS011;5922;53.734;10.258;2023-07-13T14:38:31;3.80;;;1.97;;
11731;SDS011;5922;53.734;10.258;2023-07-13T14:40:58;4.13;;;2.10;;
11731;SDS011;5922;53.734;10.258;2023-07-13T14:43:26;4.07;;;2.17;;
11731;SDS011;5922;53.734;10.258;2023-07-13T14:45:54;3.40;;;2.20;;
11731;SDS011;5922;53.734;10.258;2023-07-13T14:48:22;3.30;;;2.37;;
11731;SDS011;5922;53.734;10.258;2023-07-13T14:50:50;2.80;;;2.03;;
11731;SDS011;5922;53.734;10.258;2023-07-13T14:53:20;2.23;;;2.00;;
11731;SDS011;5922;53.734;10.258;2023-07-13T14:55:49;2.47;;;2.10;;
11731;SDS011;5922;53.734;10.258;2023-07-13T14:58:16;2.50;;;2.03;;
11731;SDS011;5922;53.734;10.258;2023-07-13T15:00:44;3.73;;;2.30;;
11731;SDS011;5922;53.734;10.258;2023-07-13T15:03:14;3.67;;;2.00;;
11731;SDS011;5922;53.734;10.258;2023-07-13T15:05:44;2.83;;;1.80;;
11731;SDS011;5922;53.734;10.258;2023-07-13T15:10:42;2.57;;;1.83;;